Time;durP1;ratioP1;P1;durP2;ratioP2;P2;SDS_P1;SDS_P2;PMS_P1;PMS_P2;Temp;Humidity;BMP_temperature;BMP_pressure;BME280_temperature;BME280_humidity;BME280_pressure;Samples;Min_cycle;Max_cycle;Signal;HPM_P1;HPM_P2
2021/05/08 00:01:11;;;;;;;1.45;1.35;;;4.00;99.90;;;;;;5070368;28;20209;-63
2021/05/08 00:03:37;;;;;;;2.67;2.55;;;4.10;99.90;;;;;;5071465;28;20241;-61
2021/05/08 00:06:09;;;;;;;1.98;1.88;;;4.20;99.90;;;;;;5070667;28;20415;-62
2021/05/08 00:08:36;;;;;;;2.97;1.95;;;4.10;99.90;;;;;;5069377;28;20394;-62
2021/05/08 00:11:03;;;;;;;2.13;2.03;;;4.10;99.90;;;;;;5072125;28;20215;-62
2021/05/08 00:13:30;;;;;;;2.70;2.60;;;4.20;99.90;;;;;;5068288;28;20298;-62
2021/05/08 00:15:57;;;;;;;1.20;1.00;;;4.20;99.90;;;;;;5071705;28;20389;-62
2021/05/08 00:18:24;;;;;;;3.03;1.70;;;4.30;99.90;;;;;;5068897;28;20209;-61
2021/05/08 00:20:51;;;;;;;2.13;1.80;;;4.50;99.90;;;;;;5069449;28;20471;-62
2021/05/08 00:23:17;;;;;;;2.05;1.85;;;4.30;99.90;;;;;;5071109;28;20235;-61
2021/05/08 00:25:44;;;;;;;11.50;2.35;;;4.10;99.90;;;;;;5072607;28;20213;-61
2021/05/08 00:28:10;;;;;;;2.88;1.90;;;4.10;99.90;;;;;;5074682;28;20570;-63
2021/05/08 00:30:37;;;;;;;2.55;2.13;;;4.20;99.90;;;;;;5075090;28;20204;-62
2021/05/08 00:33:04;;;;;;;2.40;1.73;;;4.20;99.90;;;;;;5075525;28;20215;-63
2021/05/08 00:35:30;;;;;;;2.20;1.75;;;4.20;99.90;;;;;;5074587;28;20211;-62
2021/05/08 00:37:57;;;;;;;2.45;2.25;;;4.10;99.90;;;;;;5073444;28;20239;-61
2021/05/08 00:40:24;;;;;;;1.60;1.50;;;4.10;99.90;;;;;;5074867;28;20219;-62
2021/05/08 00:42:50;;;;;;;1.50;1.30;;;3.90;99.90;;;;;;5074035;28;20823;-61
2021/05/08 00:45:17;;;;;;;1.63;1.52;;;3.90;99.90;;;;;;5072111;28;20209;-62
2021/05/08 00:47:49;;;;;;;2.30;1.42;;;3.80;99.90;;;;;;5073963;28;20579;-65
2021/05/08 00:50:20;;;;;;;1.75;1.65;;;3.90;99.90;;;;;;5075602;28;20219;-66
2021/05/08 00:52:47;;;;;;;2.58;2.17;;;3.90;99.90;;;;;;5071765;28;20212;-62
2021/05/08 00:55:13;;;;;;;4.03;1.88;;;3.70;99.90;;;;;;5074195;28;20216;-62
2021/05/08 00:57:40;;;;;;;1.60;1.50;;;3.80;99.90;;;;;;5072974;28;20517;-62
2021/05/08 01:00:08;;;;;;;2.28;1.50;;;3.80;99.90;;;;;;5075436;28;20217;-62
2021/05/08 01:02:36;;;;;;;6.65;2.95;;;3.90;99.90;;;;;;5073618;28;20437;-61
2021/05/08 01:05:05;;;;;;;3.05;2.15;;;4.00;99.90;;;;;;5073692;28;20214;-61
2021/05/08 01:07:32;;;;;;;1.42;1.33;;;4.00;99.90;;;;;;5073252;28;20266;-61
2021/05/08 01:09:58;;;;;;;1.38;1.35;;;3.80;99.90;;;;;;5073613;28;20258;-61
2021/05/08 01:12:25;;;;;;;2.47;1.30;;;4.00;99.90;;;;;;5073566;28;20244;-62
2021/05/08 01:14:53;;;;;;;1.77;1.65;;;3.90;99.90;;;;;;5072644;28;20210;-61
2021/05/08 01:17:20;;;;;;;1.80;1.70;;;4.00;99.90;;;;;;5072506;28;20240;-62
2021/05/08 01:19:46;;;;;;;1.10;1.10;;;3.90;99.90;;;;;;5071164;28;20209;-62
2021/05/08 01:22:13;;;;;;;1.60;1.50;;;3.90;99.90;;;;;;5070908;28;20233;-61
2021/05/08 01:24:40;;;;;;;1.83;1.63;;;3.90;99.90;;;;;;5072096;28;20211;-61
2021/05/08 01:27:06;;;;;;;2.10;1.95;;;4.00;99.90;;;;;;5070223;28;20209;-61
2021/05/08 01:29:33;;;;;;;2.13;1.92;;;3.80;99.90;;;;;;5074105;28;20271;-61
2021/05/08 01:32:00;;;;;;;2.15;1.75;;;3.80;99.90;;;;;;5073740;28;20218;-61
2021/05/08 01:34:26;;;;;;;1.52;1.42;;;3.70;99.90;;;;;;5072531;28;20207;-61
2021/05/08 01:36:53;;;;;;;1.77;1.67;;;3.80;99.90;;;;;;5072644;28;21342;-62
2021/05/08 01:39:22;;;;;;;1.73;1.50;;;3.60;99.90;;;;;;5070208;28;21075;-61
2021/05/08 01:41:49;;;;;;;2.55;1.80;;;3.60;99.90;;;;;;5074520;28;20212;-61
2021/05/08 01:44:15;;;;;;;1.90;1.48;;;3.60;99.90;;;;;;5073244;28;20253;-61
2021/05/08 01:46:42;;;;;;;2.50;1.75;;;3.60;99.90;;;;;;5072441;28;20212;-61
2021/05/08 01:49:08;;;;;;;1.98;1.77;;;3.60;99.90;;;;;;5072882;28;20200;-63
2021/05/08 01:51:35;;;;;;;3.13;2.33;;;3.80;99.90;;;;;;5073066;28;20213;-62
2021/05/08 01:54:02;;;;;;;1.58;1.48;;;3.40;99.90;;;;;;5072109;28;20212;-62
2021/05/08 01:56:30;;;;;;;1.20;1.20;;;3.30;99.90;;;;;;5072192;28;20208;-61
2021/05/08 01:58:56;;;;;;;2.03;1.92;;;3.20;99.90;;;;;;5072112;28;20204;-61
2021/05/08 02:01:23;;;;;;;2.83;2.53;;;3.20;99.90;;;;;;5073000;28;20215;-61
2021/05/08 02:03:49;;;;;;;3.90;2.10;;;3.30;99.90;;;;;;5071545;28;20250;-61
2021/05/08 02:06:16;;;;;;;1.80;1.70;;;3.30;99.90;;;;;;5071907;28;20207;-62
2021/05/08 02:08:43;;;;;;;1.15;1.10;;;3.60;99.90;;;;;;5072583;28;20208;-62
2021/05/08 02:11:09;;;;;;;3.88;1.70;;;3.50;99.90;;;;;;5070261;28;20527;-62
2021/05/08 02:13:37;;;;;;;1.58;1.48;;;3.30;99.90;;;;;;5073402;28;20218;-62
2021/05/08 02:16:04;;;;;;;2.30;2.20;;;3.30;99.90;;;;;;5072815;28;20219;-61
2021/05/08 02:18:30;;;;;;;1.33;0.93;;;3.40;99.90;;;;;;5069081;28;20242;-62
2021/05/08 02:20:57;;;;;;;3.00;1.35;;;3.40;99.90;;;;;;5073225;28;20195;-62
2021/05/08 02:23:23;;;;;;;1.67;1.58;;;3.40;99.90;;;;;;5069317;28;20252;-61
2021/05/08 02:25:50;;;;;;;1.92;1.33;;;3.40;99.90;;;;;;5070882;28;20208;-62
2021/05/08 02:28:17;;;;;;;2.10;1.38;;;3.30;99.90;;;;;;5072871;28;20212;-61
2021/05/08 02:30:44;;;;;;;5.28;3.13;;;3.40;99.90;;;;;;5069765;28;20196;-61
2021/05/08 02:33:10;;;;;;;3.05;2.05;;;3.50;99.90;;;;;;5072440;28;20231;-61
2021/05/08 02:35:39;;;;;;;1.73;1.42;;;3.60;99.90;;;;;;5071356;28;20254;-62
2021/05/08 02:38:06;;;;;;;2.08;1.98;;;3.70;99.90;;;;;;5071586;28;20290;-62
2021/05/08 02:40:36;;;;;;;1.73;1.20;;;3.70;99.90;;;;;;5070683;28;20208;-62
2021/05/08 02:43:03;;;;;;;1.85;1.75;;;3.70;99.90;;;;;;5071865;28;20254;-62
2021/05/08 02:45:30;;;;;;;2.55;2.15;;;3.90;99.90;;;;;;5068130;28;20219;-61
2021/05/08 02:47:57;;;;;;;2.08;1.65;;;3.60;99.90;;;;;;5071850;28;20211;-61
2021/05/08 02:50:24;;;;;;;5.10;2.78;;;3.70;99.90;;;;;;5070820;28;20752;-61
2021/05/08 02:52:51;;;;;;;0.95;0.93;;;3.60;99.90;;;;;;5072289;28;20514;-62
2021/05/08 02:55:18;;;;;;;2.85;2.60;;;3.80;99.90;;;;;;5070816;28;20219;-62
2021/05/08 02:57:45;;;;;;;2.22;2.13;;;3.80;99.90;;;;;;5071315;28;20224;-61
2021/05/08 03:00:16;;;;;;;2.28;1.60;;;4.00;99.90;;;;;;5071290;28;20208;-61
2021/05/08 03:02:44;;;;;;;3.72;1.40;;;4.10;99.90;;;;;;5070609;28;20561;-61
2021/05/08 03:05:12;;;;;;;2.20;2.03;;;4.20;99.90;;;;;;5070572;28;20212;-61
2021/05/08 03:07:38;;;;;;;3.75;2.70;;;4.30;99.90;;;;;;5071114;28;20211;-61
2021/05/08 03:10:06;;;;;;;1.75;1.45;;;4.20;99.90;;;;;;5070541;28;20212;-62
2021/05/08 03:12:33;;;;;;;2.65;2.45;;;4.30;99.90;;;;;;5070816;28;20244;-61
2021/05/08 03:15:00;;;;;;;1.70;1.60;;;4.60;99.90;;;;;;5070453;28;20208;-62
2021/05/08 03:17:28;;;;;;;2.33;2.17;;;4.50;99.90;;;;;;5069140;28;20212;-62
2021/05/08 03:19:58;;;;;;;1.70;1.30;;;4.80;99.90;;;;;;5069769;28;20208;-63
2021/05/08 03:22:26;;;;;;;3.00;1.83;;;4.70;99.90;;;;;;5071096;28;20321;-62
2021/05/08 03:24:54;;;;;;;2.72;2.35;;;4.70;99.90;;;;;;5070526;28;20203;-62
2021/05/08 03:27:20;;;;;;;3.08;2.85;;;4.80;99.90;;;;;;5070276;28;20218;-62
2021/05/08 03:29:47;;;;;;;1.30;1.20;;;4.80;99.90;;;;;;5072275;28;20203;-61
2021/05/08 03:32:13;;;;;;;3.10;2.65;;;4.90;99.90;;;;;;5069102;28;20210;-61
2021/05/08 03:34:40;;;;;;;2.40;2.20;;;4.90;99.90;;;;;;5071258;28;20206;-61
2021/05/08 03:37:07;;;;;;;1.90;1.80;;;5.10;99.90;;;;;;5071049;28;20915;-61
2021/05/08 03:39:33;;;;;;;2.03;1.83;;;5.10;99.90;;;;;;5068850;28;20206;-61
2021/05/08 03:42:00;;;;;;;2.13;1.92;;;5.10;99.90;;;;;;5071325;28;20210;-61
2021/05/08 03:44:27;;;;;;;2.25;2.10;;;5.10;99.90;;;;;;5072175;28;20568;-61
2021/05/08 03:46:53;;;;;;;1.58;1.48;;;5.30;99.90;;;;;;5071111;28;20206;-63
2021/05/08 03:49:20;;;;;;;2.08;1.98;;;5.40;99.90;;;;;;5070245;28;20210;-61
2021/05/08 03:51:47;;;;;;;2.10;2.00;;;5.40;99.90;;;;;;5069297;28;20625;-61
2021/05/08 03:54:13;;;;;;;1.95;1.83;;;5.30;99.90;;;;;;5070156;28;20411;-61
2021/05/08 03:56:40;;;;;;;1.88;1.77;;;5.40;99.90;;;;;;5071117;28;20218;-61
2021/05/08 03:59:06;;;;;;;2.25;1.88;;;5.50;99.90;;;;;;5069535;28;20233;-61
2021/05/08 04:01:33;;;;;;;3.35;3.03;;;5.50;99.90;;;;;;5072191;28;20217;-61
2021/05/08 04:04:00;;;;;;;3.55;2.17;;;5.50;99.90;;;;;;5070580;28;20241;-61
2021/05/08 04:06:26;;;;;;;1.88;1.77;;;5.50;99.90;;;;;;5070176;28;20209;-61
2021/05/08 04:08:53;;;;;;;2.67;2.47;;;5.50;99.90;;;;;;5069804;28;20213;-62
2021/05/08 04:11:20;;;;;;;2.75;2.55;;;5.50;99.90;;;;;;5069670;28;20206;-62
2021/05/08 04:13:47;;;;;;;3.33;3.03;;;5.50;99.90;;;;;;5072182;28;20230;-61
2021/05/08 04:16:13;;;;;;;4.95;3.17;;;5.50;99.90;;;;;;5067374;28;20217;-62
2021/05/08 04:18:40;;;;;;;6.75;4.03;;;5.60;99.90;;;;;;5068074;28;20210;-62
2021/05/08 04:21:06;;;;;;;4.80;2.90;;;5.90;99.90;;;;;;5070054;28;20194;-61
2021/05/08 04:23:33;;;;;;;2.80;2.60;;;6.10;99.90;;;;;;5070299;28;20241;-61
2021/05/08 04:25:59;;;;;;;2.92;1.80;;;6.20;99.90;;;;;;5071513;28;20209;-61
2021/05/08 04:28:26;;;;;;;2.42;2.13;;;6.40;99.90;;;;;;5071314;28;20214;-60
2021/05/08 04:30:53;;;;;;;4.35;2.08;;;6.30;99.90;;;;;;5068684;28;20229;-62
2021/05/08 04:33:20;;;;;;;3.00;2.63;;;6.30;99.90;;;;;;5070030;28;21148;-61
2021/05/08 04:35:46;;;;;;;2.65;1.75;;;6.30;99.90;;;;;;5069382;28;20256;-62
2021/05/08 04:38:13;;;;;;;1.60;1.50;;;6.40;99.90;;;;;;5068860;28;20210;-63
2021/05/08 04:40:41;;;;;;;4.97;3.65;;;6.50;99.90;;;;;;5070705;28;20215;-61
2021/05/08 04:43:08;;;;;;;3.17;2.95;;;6.60;99.90;;;;;;5070252;28;20621;-60
2021/05/08 04:45:35;;;;;;;2.92;2.65;;;6.70;99.90;;;;;;5070621;28;20207;-62
2021/05/08 04:48:02;;;;;;;3.92;3.53;;;6.90;99.90;;;;;;5070842;28;20218;-61
2021/05/08 04:50:29;;;;;;;2.47;1.80;;;7.20;99.90;;;;;;5070170;28;20827;-62
2021/05/08 04:52:55;;;;;;;4.60;3.65;;;7.50;99.90;;;;;;5070705;28;20218;-62
2021/05/08 04:55:22;;;;;;;6.53;3.80;;;7.70;99.90;;;;;;5069566;28;20217;-62
2021/05/08 04:57:49;;;;;;;2.13;1.90;;;7.90;99.90;;;;;;5070698;28;20214;-62
2021/05/08 05:00:18;;;;;;;2.50;2.33;;;7.90;99.90;;;;;;5070663;28;20404;-61
2021/05/08 05:02:46;;;;;;;2.38;2.22;;;7.90;99.90;;;;;;5070020;28;20253;-61
2021/05/08 05:05:19;;;;;;;3.47;2.80;;;8.00;99.90;;;;;;5070696;28;20207;-61
2021/05/08 05:07:47;;;;;;;3.55;2.83;;;8.20;99.90;;;;;;5068897;28;20206;-61
2021/05/08 05:10:14;;;;;;;2.10;2.00;;;8.30;99.90;;;;;;5071195;28;20217;-62
2021/05/08 05:12:41;;;;;;;3.90;3.15;;;8.50;99.90;;;;;;5071607;28;20760;-61
2021/05/08 05:15:08;;;;;;;2.80;2.60;;;8.70;99.90;;;;;;5073979;28;20206;-62
2021/05/08 05:17:35;;;;;;;4.18;2.72;;;8.80;99.90;;;;;;5072771;28;20203;-63
2021/05/08 05:20:05;;;;;;;3.28;2.97;;;9.10;99.90;;;;;;5071155;28;20279;-62
2021/05/08 05:22:32;;;;;;;5.78;2.75;;;9.10;99.90;;;;;;5072872;28;20220;-65
2021/05/08 05:24:59;;;;;;;5.95;3.20;;;9.30;99.80;;;;;;5073517;28;20223;-62
2021/05/08 05:27:25;;;;;;;2.92;2.70;;;9.40;99.40;;;;;;5072702;28;20207;-62
2021/05/08 05:29:53;;;;;;;5.05;3.55;;;9.60;98.60;;;;;;5073959;28;20220;-64
2021/05/08 05:32:19;;;;;;;8.45;3.45;;;9.90;98.00;;;;;;5072822;28;20212;-64
2021/05/08 05:34:46;;;;;;;3.78;2.85;;;9.90;97.70;;;;;;5073316;28;20231;-63
2021/05/08 05:37:13;;;;;;;3.10;2.80;;;10.00;97.70;;;;;;5071358;28;20208;-61
2021/05/08 05:39:39;;;;;;;4.90;2.65;;;10.20;98.00;;;;;;5072616;28;20216;-62
2021/05/08 05:42:06;;;;;;;3.35;3.05;;;10.30;97.30;;;;;;5073451;28;20408;-62
2021/05/08 05:44:33;;;;;;;4.05;3.35;;;10.30;96.60;;;;;;5073230;28;20431;-62
2021/05/08 05:46:59;;;;;;;4.75;2.80;;;10.50;96.70;;;;;;5073290;28;20209;-62
2021/05/08 05:49:26;;;;;;;2.70;2.50;;;10.70;96.50;;;;;;5072499;28;20206;-63
2021/05/08 05:51:52;;;;;;;3.22;2.92;;;10.90;95.80;;;;;;5071430;28;20211;-62
2021/05/08 05:54:21;;;;;;;5.80;3.75;;;11.20;95.30;;;;;;5071754;28;20233;-63
2021/05/08 05:56:47;;;;;;;2.80;2.33;;;11.30;94.80;;;;;;5071553;28;20278;-62
2021/05/08 05:59:14;;;;;;;4.07;3.67;;;11.40;94.40;;;;;;5072226;28;20217;-62
2021/05/08 06:01:40;;;;;;;3.95;3.65;;;11.80;93.80;;;;;;5072787;28;20234;-62
2021/05/08 06:04:07;;;;;;;3.03;2.75;;;12.40;92.60;;;;;;5070286;28;20498;-62
2021/05/08 06:06:34;;;;;;;4.43;4.10;;;12.50;92.60;;;;;;5070550;28;20207;-62
2021/05/08 06:09:00;;;;;;;5.78;4.20;;;12.80;91.90;;;;;;5068823;28;20206;-61
2021/05/08 06:11:27;;;;;;;4.32;4.03;;;13.50;91.50;;;;;;5071637;28;20242;-63
2021/05/08 06:13:53;;;;;;;4.25;4.03;;;14.40;87.30;;;;;;5073773;28;20202;-61
2021/05/08 06:16:20;;;;;;;4.47;4.28;;;15.00;86.90;;;;;;5072707;28;20216;-61
2021/05/08 06:18:46;;;;;;;5.15;4.95;;;15.50;83.40;;;;;;5071282;28;20253;-61
2021/05/08 06:21:13;;;;;;;5.60;5.30;;;15.50;79.80;;;;;;5071248;28;20215;-62
2021/05/08 06:23:40;;;;;;;5.87;5.57;;;16.10;79.00;;;;;;5075040;28;20512;-63
2021/05/08 06:26:06;;;;;;;5.77;5.47;;;16.70;74.00;;;;;;5073309;28;20453;-61
2021/05/08 06:28:33;;;;;;;5.67;5.47;;;17.10;71.40;;;;;;5068057;28;20523;-64
2021/05/08 06:30:59;;;;;;;7.57;6.77;;;17.30;69.30;;;;;;5069749;28;20419;-63
2021/05/08 06:33:26;;;;;;;6.30;6.00;;;17.90;67.80;;;;;;5071649;28;20545;-64
2021/05/08 06:35:53;;;;;;;5.90;5.60;;;18.90;62.60;;;;;;5070057;28;20624;-63
2021/05/08 06:38:19;;;;;;;6.23;5.90;;;19.60;57.90;;;;;;5069720;28;20785;-63
2021/05/08 06:40:46;;;;;;;6.33;6.03;;;20.30;55.40;;;;;;5068204;28;20627;-62
2021/05/08 06:43:12;;;;;;;6.83;6.53;;;20.50;53.60;;;;;;5074245;28;20479;-62
2021/05/08 06:45:39;;;;;;;6.80;6.50;;;20.90;51.40;;;;;;5072929;28;20445;-62
2021/05/08 06:48:07;;;;;;;6.47;6.23;;;19.30;54.00;;;;;;5071319;28;20440;-62
2021/05/08 06:50:34;;;;;;;8.20;7.50;;;20.20;52.50;;;;;;5071734;28;20551;-63
2021/05/08 06:53:02;;;;;;;6.90;6.60;;;20.80;52.20;;;;;;5070566;28;20773;-62
2021/05/08 06:55:28;;;;;;;7.43;7.13;;;22.70;47.50;;;;;;5074574;28;21033;-63
2021/05/08 06:57:57;;;;;;;7.10;6.80;;;22.80;47.60;;;;;;5068645;28;20454;-65
2021/05/08 07:00:24;;;;;;;6.70;6.37;;;23.60;44.00;;;;;;5071833;28;20450;-64
2021/05/08 07:02:50;;;;;;;7.57;7.00;;;22.90;44.60;;;;;;5069554;28;20498;-63
2021/05/08 07:05:17;;;;;;;7.73;7.43;;;23.50;43.10;;;;;;5074251;28;20640;-65
2021/05/08 07:07:44;;;;;;;8.47;7.90;;;23.20;43.90;;;;;;5074415;28;20415;-63
2021/05/08 07:10:10;;;;;;;7.60;7.20;;;24.10;42.90;;;;;;5072208;28;20416;-63
2021/05/08 07:12:38;;;;;;;7.87;7.47;;;24.30;41.20;;;;;;5073919;28;20465;-64
2021/05/08 07:15:06;;;;;;;8.17;7.77;;;23.90;41.80;;;;;;5072505;28;20616;-63
2021/05/08 07:17:33;;;;;;;8.20;7.87;;;25.20;40.40;;;;;;5074668;28;20438;-65
2021/05/08 07:20:00;;;;;;;7.53;7.23;;;25.80;39.60;;;;;;5070879;28;20444;-63
2021/05/08 07:22:27;;;;;;;7.50;7.10;;;24.80;39.90;;;;;;5074863;28;20760;-64
2021/05/08 07:24:55;;;;;;;8.00;7.60;;;23.60;40.50;;;;;;5073250;28;20726;-62
2021/05/08 07:27:21;;;;;;;7.60;7.30;;;23.20;42.60;;;;;;5072266;28;20783;-62
2021/05/08 07:29:49;;;;;;;8.60;8.20;;;23.40;42.10;;;;;;5075304;28;20447;-62
2021/05/08 07:32:15;;;;;;;8.33;7.63;;;23.40;42.40;;;;;;5072204;28;20440;-63
2021/05/08 07:34:42;;;;;;;8.13;7.67;;;23.50;42.50;;;;;;5075706;28;20440;-63
2021/05/08 07:37:08;;;;;;;7.80;7.50;;;24.40;41.00;;;;;;5073776;28;20429;-63
2021/05/08 07:39:35;;;;;;;7.57;7.30;;;24.10;39.00;;;;;;5072155;28;20422;-63
2021/05/08 07:42:02;;;;;;;7.73;7.43;;;23.30;41.30;;;;;;5071722;28;20447;-63
2021/05/08 07:44:29;;;;;;;7.60;7.30;;;24.00;40.10;;;;;;5072612;28;20462;-64
2021/05/08 07:46:56;;;;;;;7.77;7.30;;;23.80;40.20;;;;;;5074263;28;20601;-63
2021/05/08 07:49:23;;;;;;;7.37;7.07;;;23.40;41.70;;;;;;5072401;28;20821;-63
2021/05/08 07:51:49;;;;;;;7.50;7.10;;;22.50;42.40;;;;;;5071663;28;20454;-63
2021/05/08 07:54:16;;;;;;;8.10;7.60;;;23.30;41.60;;;;;;5071374;28;20608;-64
2021/05/08 07:56:42;;;;;;;7.40;7.10;;;23.10;40.70;;;;;;5073751;28;20455;-63
2021/05/08 07:59:09;;;;;;;7.27;6.97;;;23.60;41.20;;;;;;5077626;28;20409;-65
2021/05/08 08:01:36;;;;;;;7.50;7.20;;;23.40;40.80;;;;;;5073978;28;20418;-63
2021/05/08 08:04:03;;;;;;;7.03;6.73;;;23.10;41.80;;;;;;5076759;28;20422;-64
2021/05/08 08:06:30;;;;;;;7.00;6.70;;;23.30;41.50;;;;;;5073507;28;20498;-67
2021/05/08 08:08:56;;;;;;;7.27;6.97;;;24.30;38.60;;;;;;5073040;28;20415;-65
2021/05/08 08:11:23;;;;;;;7.23;6.93;;;23.50;42.40;;;;;;5071741;28;20436;-64
2021/05/08 08:13:50;;;;;;;7.77;7.37;;;23.00;40.40;;;;;;5069529;28;20443;-65
2021/05/08 08:16:16;;;;;;;7.50;7.17;;;23.40;40.70;;;;;;5074697;28;20539;-63
2021/05/08 08:18:43;;;;;;;7.00;6.70;;;22.40;41.50;;;;;;5074449;28;20613;-64
2021/05/08 08:21:10;;;;;;;8.47;7.80;;;21.90;43.00;;;;;;5071049;28;20988;-64
2021/05/08 08:23:36;;;;;;;6.90;6.60;;;23.50;40.90;;;;;;5071220;28;20436;-63
2021/05/08 08:26:03;;;;;;;7.43;6.93;;;23.70;37.90;;;;;;5072504;28;20421;-64
2021/05/08 08:28:29;;;;;;;7.03;6.73;;;23.20;40.90;;;;;;5071646;28;20964;-64
2021/05/08 08:30:56;;;;;;;7.43;7.03;;;22.60;41.10;;;;;;5072621;28;20461;-65
2021/05/08 08:33:23;;;;;;;7.27;6.87;;;21.00;44.20;;;;;;5071365;28;20463;-64
2021/05/08 08:35:49;;;;;;;6.87;6.57;;;19.20;47.40;;;;;;5070342;28;20441;-64
2021/05/08 08:38:16;;;;;;;6.73;6.43;;;19.00;48.80;;;;;;5074904;28;20812;-64
2021/05/08 08:40:43;;;;;;;6.57;6.27;;;20.20;46.60;;;;;;5071116;28;20440;-63
2021/05/08 08:43:12;;;;;;;7.47;7.07;;;19.60;46.00;;;;;;5071759;28;20448;-64
2021/05/08 08:45:41;;;;;;;6.70;6.40;;;18.70;48.50;;;;;;5074665;28;20439;-64
2021/05/08 08:48:07;;;;;;;7.10;6.80;;;18.10;48.90;;;;;;5078382;28;20419;-65
2021/05/08 08:50:36;;;;;;;7.67;7.30;;;18.30;49.00;;;;;;5074614;28;20425;-64
2021/05/08 08:53:13;;;;;;;6.90;6.60;;;19.00;47.60;;;;;;5082769;28;20577;-64
2021/05/08 08:55:49;;;;;;;7.50;7.10;;;21.40;44.20;;;;;;5075706;28;20687;-64
2021/05/08 08:58:17;;;;;;;6.93;6.63;;;24.50;38.20;;;;;;5075909;28;20473;-64
2021/05/08 09:00:44;;;;;;;7.57;6.97;;;24.30;36.20;;;;;;5075855;28;20495;-64
2021/05/08 09:03:10;;;;;;;7.23;6.90;;;24.40;34.70;;;;;;5072269;28;20453;-64
2021/05/08 09:05:37;;;;;;;7.70;7.30;;;23.90;35.80;;;;;;5078206;28;20416;-64
2021/05/08 09:08:07;;;;;;;7.07;6.60;;;23.00;36.70;;;;;;5075318;28;20424;-64
2021/05/08 09:10:34;;;;;;;6.20;6.00;;;22.70;38.60;;;;;;5073940;28;20641;-63
2021/05/08 09:13:04;;;;;;;6.70;6.40;;;23.30;38.10;;;;;;5073869;28;20464;-66
2021/05/08 09:15:41;;;;;;;6.87;6.50;;;22.30;39.00;;;;;;5073825;28;20438;-64
2021/05/08 09:18:10;;;;;;;6.60;6.30;;;22.10;38.30;;;;;;5073655;28;20439;-62
2021/05/08 09:20:43;;;;;;;7.30;6.70;;;21.60;40.20;;;;;;5075410;28;20733;-63
2021/05/08 09:23:29;;;;;;;7.70;6.57;;;21.70;39.80;;;;;;5072679;28;20446;-63
2021/05/08 09:26:06;;;;;;;6.97;6.77;;;21.40;39.30;;;;;;5075214;28;20757;-63
2021/05/08 09:28:38;;;;;;;7.13;6.73;;;20.80;41.30;;;;;;5075431;28;20443;-63
2021/05/08 09:31:07;;;;;;;7.13;6.83;;;20.20;43.60;;;;;;5076308;28;20447;-64
2021/05/08 09:33:34;;;;;;;8.27;7.70;;;19.20;44.70;;;;;;5076402;28;20455;-64
2021/05/08 09:36:08;;;;;;;9.10;7.30;;;18.00;46.20;;;;;;5076804;28;20622;-64
2021/05/08 09:38:40;;;;;;;6.83;6.40;;;16.90;47.60;;;;;;5075690;28;20446;-64
2021/05/08 09:41:09;;;;;;;6.97;6.67;;;16.20;50.20;;;;;;5075945;28;20775;-64
2021/05/08 09:43:37;;;;;;;7.33;6.83;;;16.20;51.50;;;;;;5075060;28;20768;-63
2021/05/08 09:46:05;;;;;;;6.20;6.00;;;16.30;50.90;;;;;;5076747;28;20778;-64
2021/05/08 09:48:36;;;;;;;6.30;6.00;;;16.10;50.90;;;;;;5073450;28;20441;-64
2021/05/08 09:51:26;;;;;;;6.60;6.30;;;15.60;51.50;;;;;;5071893;28;20457;-65
2021/05/08 09:54:14;;;;;;;6.67;6.43;;;15.30;54.40;;;;;;5073795;28;20839;-63
2021/05/08 09:56:46;;;;;;;7.10;6.70;;;15.60;54.50;;;;;;5073367;28;20465;-63
2021/05/08 10:02:01;;;;;;;6.25;6.05;;;15.90;50.40;;;;;;5071149;28;20465;-63
2021/05/08 10:04:32;;;;;;;6.90;6.60;;;15.50;50.90;;;;;;5069158;28;20233;-64
2021/05/08 10:07:08;;;;;;;7.28;6.88;;;15.30;49.40;;;;;;5074745;28;20505;-63
2021/05/08 10:09:36;;;;;;;7.80;7.20;;;15.10;49.20;;;;;;5075587;28;20203;-64
2021/05/08 10:12:05;;;;;;;7.65;7.13;;;15.20;49.30;;;;;;5072996;28;20582;-63
2021/05/08 10:14:34;;;;;;;6.72;6.32;;;15.60;49.50;;;;;;5072589;28;20224;-63
2021/05/08 10:17:19;;;;;;;6.50;6.20;;;16.20;50.20;;;;;;5073715;28;20417;-63
2021/05/08 10:19:48;;;;;;;8.13;7.53;;;16.40;48.40;;;;;;5075170;28;20425;-63
2021/05/08 10:22:16;;;;;;;7.40;7.03;;;16.10;46.90;;;;;;5071400;28;20487;-63
2021/05/08 10:24:45;;;;;;;7.53;7.13;;;15.90;47.50;;;;;;5074107;28;20445;-64
2021/05/08 10:27:13;;;;;;;7.83;7.30;;;15.90;47.10;;;;;;5074671;28;20813;-66
2021/05/08 10:29:47;;;;;;;7.70;7.30;;;16.20;46.90;;;;;;5076413;28;20410;-63
2021/05/08 10:32:17;;;;;;;7.33;6.93;;;16.70;47.70;;;;;;5075092;28;21069;-64
2021/05/08 10:35:04;;;;;;;7.33;6.93;;;17.20;46.20;;;;;;5073920;28;20641;-64
2021/05/08 10:37:31;;;;;;;7.07;6.77;;;17.40;45.60;;;;;;5067973;28;20439;-63
2021/05/08 10:40:00;;;;;;;7.70;7.30;;;17.10;45.40;;;;;;5074099;28;20470;-64
2021/05/08 10:42:49;;;;;;;7.63;7.13;;;16.90;46.10;;;;;;5074347;28;20445;-65
2021/05/08 10:45:19;;;;;;;7.23;6.93;;;16.80;47.60;;;;;;5073387;28;20663;-63
2021/05/08 10:48:03;;;;;;;7.40;7.00;;;16.50;47.50;;;;;;5077963;28;20691;-64
2021/05/08 10:50:42;;;;;;;7.30;6.80;;;16.40;47.50;;;;;;5073602;28;20403;-64
2021/05/08 10:53:17;;;;;;;7.63;7.07;;;16.10;48.70;;;;;;5074711;28;20457;-64
2021/05/08 10:55:50;;;;;;;7.23;6.93;;;15.90;49.80;;;;;;5069559;28;20935;-64
2021/05/08 10:58:17;;;;;;;8.53;8.03;;;15.90;49.50;;;;;;5067096;28;20559;-64
2021/05/08 11:00:51;;;;;;;7.60;7.10;;;15.90;49.60;;;;;;5073098;28;20418;-64
2021/05/08 11:03:22;;;;;;;7.67;7.17;;;16.00;51.20;;;;;;5073232;28;20648;-63
2021/05/08 11:06:02;;;;;;;7.50;7.10;;;15.90;49.70;;;;;;5070252;28;20449;-64
2021/05/08 11:08:29;;;;;;;6.70;6.40;;;16.00;48.30;;;;;;5072456;28;20451;-63
2021/05/08 11:10:57;;;;;;;8.13;7.63;;;16.30;47.90;;;;;;5073406;28;20446;-64
2021/05/08 11:13:28;;;;;;;7.80;7.40;;;17.00;47.20;;;;;;5070794;28;20461;-63
2021/05/08 11:15:55;;;;;;;8.67;8.03;;;17.70;47.20;;;;;;5074714;28;20420;-64
2021/05/08 11:18:31;;;;;;;7.60;7.10;;;18.10;45.60;;;;;;5070654;28;20413;-64
2021/05/08 11:21:26;;;;;;;8.40;7.70;;;18.00;45.10;;;;;;5074514;28;20410;-64
2021/05/08 11:23:58;;;;;;;7.60;7.10;;;17.70;46.20;;;;;;5069053;28;20418;-66
2021/05/08 11:26:28;;;;;;;7.77;7.37;;;17.70;46.00;;;;;;5072036;28;20816;-64
2021/05/08 11:29:05;;;;;;;8.33;7.73;;;17.50;44.80;;;;;;5073730;28;20458;-65
2021/05/08 11:31:50;;;;;;;7.50;6.87;;;17.30;46.10;;;;;;5075234;28;20425;-64
2021/05/08 11:34:21;;;;;;;6.50;6.20;;;17.20;46.10;;;;;;5074673;28;20449;-65
2021/05/08 11:37:04;;;;;;;7.90;7.50;;;17.00;46.50;;;;;;5074968;28;20413;-64
2021/05/08 11:39:36;;;;;;;8.20;7.60;;;16.80;46.60;;;;;;5070386;28;20416;-65
2021/05/08 11:42:03;;;;;;;8.03;7.53;;;17.00;46.60;;;;;;5074411;28;20930;-65
2021/05/08 11:44:33;;;;;;;7.60;7.20;;;17.40;45.40;;;;;;5073400;28;20805;-65
2021/05/08 11:47:04;;;;;;;6.87;6.37;;;17.50;45.10;;;;;;5072158;28;20481;-65
2021/05/08 11:49:36;;;;;;;7.73;7.33;;;17.50;45.90;;;;;;5071351;28;20436;-64
2021/05/08 11:52:07;;;;;;;8.10;7.60;;;17.90;45.20;;;;;;5075517;28;20754;-65
2021/05/08 11:54:43;;;;;;;7.73;7.23;;;18.10;45.10;;;;;;5072263;28;20473;-65
2021/05/08 11:57:20;;;;;;;7.37;6.97;;;18.40;43.50;;;;;;5073068;28;20687;-65
2021/05/08 11:59:47;;;;;;;7.83;7.23;;;18.50;43.90;;;;;;5072862;28;20567;-65
2021/05/08 12:02:16;;;;;;;7.30;6.80;;;18.40;44.60;;;;;;5072870;28;20679;-64
2021/05/08 12:04:48;;;;;;;8.00;7.30;;;18.30;44.20;;;;;;5072092;28;20426;-65
2021/05/08 12:07:18;;;;;;;7.10;6.70;;;18.50;46.10;;;;;;5070340;28;20415;-64
2021/05/08 12:09:46;;;;;;;7.50;7.17;;;18.50;44.50;;;;;;5069708;28;20445;-64
2021/05/08 12:12:12;;;;;;;7.40;6.90;;;18.20;44.50;;;;;;5072049;28;20453;-65
2021/05/08 12:14:40;;;;;;;8.77;8.20;;;18.40;44.70;;;;;;5071760;28;20458;-65
2021/05/08 12:17:08;;;;;;;8.30;7.70;;;18.40;44.50;;;;;;5072377;28;20488;-64
2021/05/08 12:19:42;;;;;;;8.23;7.73;;;18.40;43.50;;;;;;5076135;28;20457;-65
2021/05/08 12:22:09;;;;;;;7.13;6.73;;;18.50;44.30;;;;;;5078012;28;20455;-64
2021/05/08 12:24:36;;;;;;;7.73;7.17;;;18.60;43.00;;;;;;5076971;28;20414;-65
2021/05/08 12:27:03;;;;;;;7.50;7.10;;;18.40;43.20;;;;;;5080766;28;20424;-65
2021/05/08 12:29:56;;;;;;;7.22;6.72;;;18.50;44.30;;;;;;5077818;28;20432;-64
2021/05/08 12:32:23;;;;;;;6.40;6.00;;;18.40;42.10;;;;;;5076258;28;20451;-65
2021/05/08 12:34:54;;;;;;;7.60;7.10;;;18.20;43.60;;;;;;5077957;28;20234;-64
2021/05/08 12:37:21;;;;;;;7.67;7.27;;;18.10;43.10;;;;;;5074000;28;20602;-65
2021/05/08 12:39:49;;;;;;;7.53;7.03;;;17.70;43.90;;;;;;5078908;28;20414;-65
2021/05/08 12:42:17;;;;;;;7.20;6.70;;;17.40;44.10;;;;;;5076305;28;20478;-66
2021/05/08 12:44:46;;;;;;;7.07;6.67;;;17.10;45.40;;;;;;5075924;28;20488;-65
2021/05/08 12:47:23;;;;;;;7.63;7.20;;;16.80;46.60;;;;;;5073395;28;20427;-65
2021/05/08 12:50:11;;;;;;;6.13;5.93;;;16.70;47.50;;;;;;5073658;28;20397;-64
2021/05/08 12:52:41;;;;;;;7.93;7.53;;;16.70;46.80;;;;;;5074298;28;20476;-65
2021/05/08 12:55:22;;;;;;;8.37;7.83;;;16.70;46.90;;;;;;5078930;28;20805;-66
2021/05/08 12:57:49;;;;;;;6.90;6.60;;;16.90;45.80;;;;;;5081842;28;20414;-64
2021/05/08 13:00:17;;;;;;;7.10;6.60;;;17.00;45.20;;;;;;5075351;28;20625;-65